Lloc web orientat als practicants d'activitats
Centenari de l'SMC: 100 anys mirant el cel

Dades de l'estació automàtica Canaletes

?
?

Resum diari

22:30 TU
Dades diàries de l'estació meteorològica
Temperatura mitjana 10.4 °C
Temperatura màxima 16.6 °C 13:24 TU
Temperatura mínima 3.9 °C 4:56 TU
Humitat relativa mitjana 77%
Precipitació acumulada 0.0 mm
Ratxa màxima del vent (2 m) 33.5 km/h - 175º 14:14 TU
Irradiació solar global 20.4 MJ/m2

El tram horari està expressat en Temps Universal (TU). Cal sumar una hora en horari d'hivern i dues en horari d'estiu per passar a l'hora oficial.

Canaletes

Metadades estació meteorològica
Municipi Mediona
Comarca Alt Penedès
Altitud 325 m
Data alta 17.05.2002
Estat actual Operativa
Dades de període
Període
TU
TM
°C
TX
°C
TN
°C
HRM
%
PPT
mm
VVM (2 m)
km/h
DVM (2 m)
graus
VVX (2 m)
km/h
RS
W/m2
00:00 - 00:30 6.0 6.1 5.8 92 0.0 4.7 304 7.6 0
00:30 - 01:00 6.1 6.4 5.9 89 0.0 5.8 315 7.9 0
01:00 - 01:30 6.1 6.5 5.8 89 0.0 4.0 330 8.6 0
01:30 - 02:00 6.1 6.6 5.6 87 0.0 3.6 321 7.9 0
02:00 - 02:30 5.8 6.1 5.7 87 0.0 3.2 341 8.3 0
02:30 - 03:00 6.2 6.3 6.1 85 0.0 4.3 347 7.9 0
03:00 - 03:30 5.0 6.2 4.5 90 0.0 2.2 164 5.8 0
03:30 - 04:00 4.8 5.0 4.4 91 0.0 1.8 315 5.4 0
04:00 - 04:30 4.8 5.2 4.2 89 0.0 4.3 298 7.2 0
04:30 - 05:00 4.5 4.9 3.9 91 0.0 3.2 307 6.5 0
05:00 - 05:30 4.6 5.4 4.0 92 0.0 5.8 309 8.3 2
05:30 - 06:00 4.4 5.1 4.0 93 0.0 2.9 270 7.2 42
06:00 - 06:30 6.2 7.7 5.2 89 0.0 1.1 8 3.2 138
06:30 - 07:00 8.1 9.1 7.1 82 0.0 1.4 105 5.0 242
07:00 - 07:30 9.0 9.2 8.8 75 0.0 4.0 54 7.6 334
07:30 - 08:00 9.6 10.1 9.2 73 0.0 4.3 60 9.7 424
08:00 - 08:30 10.2 10.8 9.7 73 0.0 3.2 30 7.6 357
08:30 - 09:00 10.8 11.9 10.2 72 0.0 3.6 196 11.9 383
09:00 - 09:30 11.7 12.3 10.7 69 0.0 4.0 169 11.9 443
09:30 - 10:00 12.6 13.6 11.8 66 0.0 7.2 152 20.5 621
10:00 - 10:30 13.7 14.3 13.1 61 0.0 9.0 143 19.4 832
10:30 - 11:00 14.6 16.1 13.9 56 0.0 9.4 177 26.3 721
11:00 - 11:30 14.8 15.7 13.8 55 0.0 11.5 171 24.5 646
11:30 - 12:00 15.4 16.0 14.4 53 0.0 12.6 192 25.2 985
12:00 - 12:30 15.6 16.1 15.1 52 0.0 13.7 189 29.2 901
12:30 - 13:00 15.6 16.0 14.8 51 0.0 14.4 190 25.6 851
13:00 - 13:30 15.9 16.6 15.3 50 0.0 12.6 193 26.6 810
13:30 - 14:00 15.7 16.2 14.9 53 0.0 15.5 192 27.7 719
14:00 - 14:30 14.8 15.6 14.3 58 0.0 16.9 186 33.5 545
14:30 - 15:00 14.4 14.9 13.7 62 0.0 15.8 187 26.6 383
15:00 - 15:30 13.5 13.7 13.3 68 0.0 14.4 181 25.2 297
15:30 - 16:00 13.6 13.9 13.3 68 0.0 13.3 191 25.9 309
16:00 - 16:30 13.6 14.0 13.2 68 0.0 12.6 194 23.0 205
16:30 - 17:00 13.0 13.2 12.7 72 0.0 11.2 192 20.5 90
17:00 - 17:30 12.5 12.6 12.3 75 0.0 10.8 193 18.7 62
17:30 - 18:00 12.1 12.3 12.0 78 0.0 7.9 180 15.8 41
18:00 - 18:30 11.8 12.0 11.6 81 0.0 7.2 183 15.1 8
18:30 - 19:00 11.6 11.6 11.5 84 0.0 6.1 182 14.4 0
19:00 - 19:30 11.4 11.5 11.4 86 0.0 6.8 179 13.0 0
19:30 - 20:00 11.3 11.4 11.1 87 0.0 5.4 184 11.9 0
20:00 - 20:30 10.9 11.0 10.7 89 0.0 2.5 200 7.6 0
20:30 - 21:00 10.7 10.7 10.6 89 0.0 0.7 217 3.6 0
21:00 - 21:30 10.4 10.6 10.1 89 0.0 1.1 347 2.2 0
21:30 - 22:00 10.2 10.3 10.1 90 0.0 1.4 30 3.6 0
22:00 - 22:30 10.1 10.2 9.8 92 0.0 1.1 3 2.9 0
22:30 - 23:00 9.9 10.0 9.7 93 0.0 1.4 12 4.0 0
23:00 - 23:30 (s/d) (s/d) (s/d) (s/d) (s/d) (s/d) (s/d) (s/d) (s/d)

Les dades en taronja només han passat un control de qualitat automàtic. Resta pendent la seva validació definitiva.